Il s'agit d'un problème de communication. Allez directement sur le site Meteoalarm : www.meteoalarm.eu et vérifier les avertissements météorologiques..



Thunder radar more information blitzortung!


Rain radar more information rain snow radar



Rapports METAR proximité

   
EHVK - Volkel Rnlafb, Netherlands
Distance: SO 18 km
Mise à jour: 28-01-2023 17:55
Claires  
Claires  
   Vent: SSO 5.6 km/h
Vent: SSO 5.6 km/h
Température: 0°C
éolien: -2°C
Point de rosée: -3°C
Humidité: 80%
Baromètre: 1030 hPa
Nuageux: Claires
visibilité: More than 10 km
Détails des nuages: Claires
EHVK 281655Z AUTO 21003KT 9999 NCD M00/M03 Q1030 BLU
EDLV - Niederrhein, Germany
Distance: SE 25 km
Mise à jour: 28-01-2023 17:50
Claires  
Claires  
   Vent: SE 1.9 km/h
Vent: SE 1.9 km/h
Température: -1°C
Point de rosée: -4°C
Humidité: 80%
Baromètre: 1030 hPa
visibilité: More than 10 km
Détails des nuages: Claires
EDLV 281650Z 13001KT CAVOK M01/M04 Q1030
EHDL - Deelen Rnlafb, Netherlands
Distance: N 35 km
Mise à jour: 28-01-2023 17:55
Nuageux  
Nuageux  
   Vent: SSE 5.6 km/h
Vent: SSE 5.6 km/h
Température: 2°C
éolien: 1°C
Point de rosée: -2°C
Humidité: 75%
Baromètre: 1030 hPa
Nuageux: Nuageux
visibilité: More than 10 km
Détails des nuages: Partiellement nuageux 2600 ft,
Nuageux 3100 ft
EHDL 281655Z AUTO 16003KT 9999 SCT026 OVC031 02/M02 Q1030 BLU
EHEH - Eindhoven Rnlafb, Netherlands
Distance: SO 48 km
Mise à jour: 28-01-2023 17:55
Claires  
Claires  
   Vent: varie 3.7 km/h
Vent: varie 3.7 km/h
Température: 0°C
Point de rosée: -3°C
Humidité: 80%
Baromètre: 1031 hPa
Nuageux: Claires
visibilité: More than 10 km
Détails des nuages: Claires
EHEH 281655Z AUTO VRB02KT 9999 NCD M00/M03 Q1031 BLU NOSIG
EHGR - Gilze-Rijen Rnla, Netherlands
Distance: OSO 70 km
Mise à jour: 28-01-2023 17:55
Nuageux  
Nuageux  
   Vent: SSO 9.3 km/h
Vent: SSO 9.3 km/h
Température: 2°C
éolien: -1°C
Point de rosée: -2°C
Humidité: 75%
Baromètre: 1030 hPa
Nuageux: Nuageux
visibilité: More than 10 km
Détails des nuages: Nuageux 2700 ft
EHGR 281655Z AUTO 20005KT 170V230 9999 OVC027 02/M02 Q1030 BLU
EBBL - Kleine-Brogel(Ba, Belgium
Distance: SSO 71 km
Mise à jour: 28-01-2023 17:55
Nuageux  
Nuageux  
   Vent: varie 3.7 km/h
Vent: varie 3.7 km/h
Température: -1°C
Point de rosée: -4°C
Humidité: 80%
Baromètre: 1030 hPa
Nuageux: Nuageux
visibilité: More than 10 km
Détails des nuages: Nuageux 2400 ft
EBBL 281655Z AUTO VRB02KT 9999 BKN024/// M01/M04 Q1030 WHT

Script développé par  Saratoga-weather.org Adapté pour le modèle par  Weerstation Leuven

Vous trouverez notre info météo Également à:

Weather Underground

Équipement que nous utilisons:

Station de Météo
Davis VP2

Programme Météo
Meteobridge

Ordinateur Météo
Apple Imac

Davis VP2

Meteobridge

Apple Imac